Flight Track Log - Related Links

Times and Time Zones

All times are in EDT time to prevent confusion due to time zone crossing. See the SWA1802 flight status page for this flight to view local times or setup timezone preferences in your user account.

Time Position Orientation Groundspeed Altitude Reporting Facility
EDT Latitude Longitude Course Direction KTS MPH feet Rate Location/Type
Sun 07:53:51 PM 41.7700 -87.7700 219° Southwest 157 181 2,000  Level FlightAware ADS-B
Sun 07:54:03 PM 41.7630 -87.7780 220° Southwest 175 201 2,300 1,535 Climbing FlightAware ADS-B
Sun 07:54:34 PM 41.7400 -87.8020 218° Southwest 222 255 3,100 2,441 Climbing FlightAware ADS-B
Sun 07:55:02 PM 41.7170 -87.8270 219° Southwest 227 261 4,700 2,786 Climbing FlightAware ADS-B
Sun 07:55:30 PM 41.6930 -87.8540 220° Southwest 261 300 5,700 2,679 Climbing FlightAware ADS-B
Sun 07:55:58 PM 41.6670 -87.8840 221° Southwest 271 312 7,200 3,462 Climbing FlightAware ADS-B
Sun 07:56:22 PM 41.6430 -87.9100 219° Southwest 273 314 8,700 3,750 Climbing FlightAware ADS-B
Sun 07:56:38 PM 41.6280 -87.9270 220° Southwest 273 314 9,700 3,100 Climbing FlightAware ADS-B
Sun 07:57:22 PM 41.5840 -87.9770 220° Southwest 288 331 11,800 1,714 Climbing FlightAware ADS-B
Sun 07:58:02 PM 41.5430 -88.0230 220° Southwest 293 337 12,100 237 Climbing FlightAware ADS-B
Sun 07:58:38 PM 41.5040 -88.0660 220° Southwest 308 354 12,100  Level FlightAware ADS-B
Sun 07:59:18 PM 41.4610 -88.1130 219° Southwest 306 352 12,100 1,143 Level FlightAware ADS-B
Sun 08:00:02 PM 41.4110 -88.1680 220° Southwest 321 369 13,700 1,579 Climbing FlightAware ADS-B
Sun 08:00:34 PM 41.3680 -88.1970 207° Southwest 327 376 14,100 390 Climbing FlightAware ADS-B
Sun 08:01:19 PM 41.3040 -88.2250 198° South 324 373 14,200 1,227 Climbing FlightAware ADS-B
Sun 08:02:02 PM 41.2410 -88.2540 199° South 338 389 15,900 2,597 Climbing FlightAware ADS-B
Sun 08:02:26 PM 41.2060 -88.2700 199° South 339 390 17,100 2,667 Climbing FlightAware ADS-B
Sun 08:03:05 PM 41.1480 -88.2960 199° South 349 402 18,700 1,443 Climbing FlightAware ADS-B
Sun 08:03:45 PM 41.0860 -88.3240 199° South 353 406 19,000 225 Climbing FlightAware ADS-B
Sun 08:04:25 PM 41.0230 -88.3520 199° South 351 404 19,000 349 Level FlightAware ADS-B
Sun 08:05:11 PM 40.9530 -88.3840 199° South 353 406 19,500 1,395 Climbing FlightAware ADS-B
Sun 08:05:51 PM 40.8900 -88.4120 199° South 357 411 21,000 2,049 Climbing FlightAware ADS-B
Sun 08:06:33 PM 40.8240 -88.4410 198° South 368 423 22,300 1,950 Climbing FlightAware ADS-B
Sun 08:07:11 PM 40.7620 -88.4690 199° South 373 429 23,600 1,929 Climbing FlightAware ADS-B
Sun 08:07:57 PM 40.6860 -88.5030 199° South 383 441 25,000 977 Climbing FlightAware ADS-B
Sun 08:08:37 PM 40.6150 -88.5350 199° South 412 474 25,000  Level FlightAware ADS-B
Sun 08:09:21 PM 40.5350 -88.5700 198° South 425 489 25,000 628 Level FlightAware ADS-B
Sun 08:10:03 PM 40.4560 -88.6050 199° South 425 489 25,900 1,395 Climbing FlightAware ADS-B
Sun 08:10:47 PM 40.3760 -88.6410 199° South 431 496 27,000 615 Climbing FlightAware ADS-B
Sun 08:14:07 PM 40.0520 -88.8450 206° Southwest 442 509 28,400 929 Climbing FlightAware ADS-B
Sun 08:14:59 PM 39.9540 -88.9330 215° Southwest 434 499 30,900 2,526 Climbing FlightAware ADS-B
Sun 08:15:42 PM 39.8620 -89.0230 217° Southwest 426 490 32,400 1,829 Climbing FlightAware ADS-B
Sun 08:16:21 PM 39.8120 -89.0950 228° Southwest 421 484 33,400 1,171 Climbing FlightAware ADS-B
Sun 08:17:04 PM 39.7570 -89.1770 229° Southwest 420 483 34,000 414 Climbing FlightAware ADS-B
Sun 08:17:48 PM 39.7020 -89.2600 229° Southwest 420 483 34,000  Level FlightAware ADS-B
Sun 08:18:28 PM 39.6530 -89.3330 229° Southwest 418 481 34,000 300 Level FlightAware ADS-B
Sun 08:19:08 PM 39.6000 -89.4110 229° Southwest 418 481 34,400 769 Climbing FlightAware ADS-B
Sun 08:19:46 PM 39.5520 -89.4820 229° Southwest 413 475 35,000 450 Climbing FlightAware ADS-B
Sun 08:20:28 PM 39.4970 -89.5620 228° Southwest 411 473 35,000  Level FlightAware ADS-B
Sun 08:21:10 PM 39.4450 -89.6390 229° Southwest 410 472 35,000  Level FlightAware ADS-B
Sun 08:21:46 PM 39.4010 -89.7030 228° Southwest 410 472 35,000  Level FlightAware ADS-B
Sun 08:22:26 PM 39.3590 -89.7820 236° Southwest 410 472 35,000  Level FlightAware ADS-B
Sun 08:23:06 PM 39.3160 -89.8630 236° Southwest 411 473 35,000 553 Level FlightAware ADS-B
Sun 08:23:42 PM 39.2770 -89.9360 235° Southwest 408 470 35,700 779 Climbing FlightAware ADS-B
Sun 08:24:23 PM 39.2320 -90.0190 235° Southwest 408 470 36,000 209 Climbing FlightAware ADS-B
Sun 08:25:08 PM 39.1880 -90.1000 235° Southwest 408 470 36,000 72 Level FlightAware ADS-B
Sun 08:25:46 PM 39.1420 -90.1870 236° Southwest 410 472 36,100 474 Climbing FlightAware ADS-B
Sun 08:26:24 PM 39.1020 -90.2610 235° Southwest 410 472 36,600 929 Climbing FlightAware ADS-B
Sun 08:27:10 PM 39.0510 -90.3540 235° Southwest 409 471 37,400 1,024 Climbing FlightAware ADS-B
Sun 08:27:46 PM 39.0140 -90.4230 235° Southwest 407 468 38,000 434 Climbing FlightAware ADS-B
Sun 08:28:33 PM 38.9670 -90.5070 234° Southwest 407 468 38,000  Level FlightAware ADS-B
Sun 08:29:09 PM 38.9330 -90.5670 234° Southwest 407 468 38,000  Level FlightAware ADS-B
Sun 08:29:57 PM 38.8880 -90.6460 234° Southwest 407 468 38,000  Level FlightAware ADS-B
Sun 08:30:30 PM 38.8370 -90.7460 237° Southwest 407 468 38,000  Level FlightAware ADS-B
Sun 08:31:29 PM 38.7790 -90.8500 234° Southwest 407 468 38,000  Level FlightAware ADS-B
Sun 08:32:05 PM 38.7450 -90.9090 234° Southwest 407 468 38,000  Level FlightAware ADS-B
Sun 08:32:41 PM 38.7110 -90.9690 234° Southwest 407 468 38,000  Level FlightAware ADS-B
Sun 08:33:29 PM 38.6660 -91.0490 234° Southwest 407 468 38,000  Level FlightAware ADS-B
Sun 08:34:09 PM 38.6030 -91.1680 236° Southwest 408 470 38,000  Level FlightAware ADS-B
Sun 08:34:45 PM 38.5690 -91.2280 234° Southwest 408 470 38,000  Level FlightAware ADS-B
Sun 08:35:41 PM 38.5000 -91.3520 235° Southwest 407 468 38,000  Level FlightAware ADS-B
Sun 08:36:18 PM 38.4650 -91.4130 234° Southwest 407 468 38,000  Level FlightAware ADS-B
Sun 08:37:06 PM 38.4200 -91.4930 234° Southwest 407 468 38,000  Level FlightAware ADS-B
Sun 08:37:43 PM 38.3620 -91.5990 235° Southwest 404 465 38,000  Level FlightAware ADS-B
Sun 08:38:22 PM 38.3250 -91.6630 234° Southwest 404 465 38,000  Level FlightAware ADS-B
Sun 08:39:09 PM 38.2690 -91.7620 234° Southwest 401 461 38,000  Level FlightAware ADS-B
Sun 08:39:43 PM 38.2320 -91.8280 234° Southwest 403 464 38,000  Level FlightAware ADS-B
Sun 08:40:29 PM 38.1820 -91.9150 234° Southwest 404 465 38,000  Level FlightAware ADS-B
Sun 08:41:07 PM 38.1390 -91.9910 234° Southwest 403 464 38,000  Level FlightAware ADS-B
Sun 08:41:47 PM 38.1020 -92.0560 234° Southwest 403 464 38,000  Level FlightAware ADS-B
Sun 08:42:23 PM 38.0570 -92.1350 234° Southwest 405 466 38,000  Level FlightAware ADS-B
Sun 08:43:09 PM 38.0060 -92.2230 234° Southwest 406 467 38,000  Level FlightAware ADS-B
Sun 08:43:45 PM 37.9650 -92.2950 234° Southwest 408 470 38,000  Level FlightAware ADS-B
Sun 08:44:26 PM 37.9210 -92.3710 234° Southwest 410 472 38,000  Level FlightAware ADS-B
Sun 08:45:09 PM 37.8710 -92.4570 234° Southwest 413 475 38,000  Level FlightAware ADS-B
Sun 08:45:49 PM 37.8260 -92.5350 234° Southwest 414 476 38,000 -357 Level FlightAware ADS-B
Sun 08:46:33 PM 37.7760 -92.6200 233° Southwest 414 476 37,500 -698 Descending FlightAware ADS-B
Sun 08:47:15 PM 37.7280 -92.7020 234° Southwest 415 478 37,000 -750 Descending FlightAware ADS-B
Sun 08:47:53 PM 37.6900 -92.7820 239° Southwest 411 473 36,500 -800 Descending FlightAware ADS-B
Sun 08:48:30 PM 37.6590 -92.8600 243° Southwest 415 478 36,000 -370 Descending FlightAware ADS-B
Sun 08:49:14 PM 37.6200 -92.9560 243° Southwest 415 478 36,000  Level FlightAware ADS-B
Sun 08:49:52 PM 37.5860 -93.0390 243° Southwest 415 478 36,000  Level FlightAware ADS-B
Sun 08:50:32 PM 37.5520 -93.1230 243° Southwest 415 478 36,000  Level FlightAware ADS-B
Sun 08:51:12 PM 37.5170 -93.2080 243° Southwest 415 478 36,000  Level FlightAware ADS-B
Sun 08:51:54 PM 37.4800 -93.2990 243° Southwest 414 476 36,000  Level FlightAware ADS-B
Sun 08:52:30 PM 37.4480 -93.3760 242° Southwest 413 475 36,000  Level FlightAware ADS-B
Sun 08:53:12 PM 37.4110 -93.4670 243° Southwest 412 474 36,000  Level FlightAware ADS-B
Sun 08:53:57 PM 37.3730 -93.5580 242° Southwest 413 475 36,000  Level FlightAware ADS-B
Sun 08:54:38 PM 37.3350 -93.6480 242° Southwest 412 474 36,000  Level FlightAware ADS-B
Sun 08:55:18 PM 37.3000 -93.7340 243° Southwest 411 473 36,000 -786 Level FlightAware ADS-B
Sun 08:56:02 PM 37.2620 -93.8250 242° Southwest 402 463 34,900 -1,643 Descending FlightAware ADS-B
Sun 08:56:42 PM 37.2280 -93.9050 242° Southwest 394 453 33,700 -1,800 Descending FlightAware ADS-B
Sun 08:57:22 PM 37.1980 -93.9890 246° West 390 449 32,500 -1,500 Descending FlightAware ADS-B
Sun 08:58:06 PM 37.1690 -94.0790 248° West 383 441 31,600 -1,071 Descending FlightAware ADS-B
Sun 08:58:46 PM 37.1430 -94.1640 249° West 396 456 31,000 -1,186 Descending FlightAware ADS-B
Sun 08:59:32 PM 37.1120 -94.2630 249° West 391 450 29,900 -1,535 Descending FlightAware ADS-B
Sun 09:00:12 PM 37.0870 -94.3440 249° West 384 442 28,800 -1,875 Descending FlightAware ADS-B
Sun 09:00:52 PM 37.0610 -94.4280 249° West 375 432 27,400 -2,024 Descending FlightAware ADS-B
Sun 09:01:35 PM 37.0340 -94.5140 249° West 382 440 26,000 -1,977 Descending FlightAware ADS-B
Sun 09:02:20 PM 37.0060 -94.6100 250° West 389 448 24,500 -2,047 Descending FlightAware ADS-B
Sun 09:03:00 PM 36.9810 -94.6950 250° West 395 455 23,100 -2,100 Descending FlightAware ADS-B
Sun 09:03:40 PM 36.9560 -94.7800 250° West 399 459 21,700 -1,537 Descending FlightAware ADS-B
Sun 09:04:22 PM 36.9300 -94.8690 250° West 366 421 21,000 -1,326 Descending FlightAware ADS-B
Sun 09:05:06 PM 36.9050 -94.9530 250° West 354 407 19,800 -1,643 Descending FlightAware ADS-B
Sun 09:05:46 PM 36.8830 -95.0280 250° West 346 398 18,700 -1,929 Descending FlightAware ADS-B
Sun 09:06:30 PM 36.8580 -95.1110 249° West 345 397 17,100 -1,416 Descending FlightAware ADS-B
Sun 09:07:15 PM 36.8350 -95.1850 249° West 344 396 16,600 -1,010 Descending FlightAware ADS-B
Sun 09:08:11 PM 36.7830 -95.2590 229° Southwest 346 398 15,400 -2,370 Descending FlightAware ADS-B
Sun 09:08:36 PM 36.7450 -95.3060 225° Southwest 343 395 13,400 -2,829 Descending FlightAware ADS-B
Sun 09:09:21 PM 36.7000 -95.3660 227° Southwest 341 392 12,100 -1,694 Descending FlightAware ADS-B
Sun 09:10:01 PM 36.6540 -95.4260 226° Southwest 327 376 11,000 -733 Descending FlightAware ADS-B
Sun 09:10:51 PM 36.6090 -95.4840 226° Southwest 327 376 11,000 -1,282 Level FlightAware ADS-B
Sun 09:11:58 PM 36.5394 -95.5750 226° Southwest 302 348 8,500 -1,860 Descending Kansas City Center
Sun 09:13:00 PM 36.4850 -95.6447 226° Southwest 288 331 7,000 -1,415 Descending Kansas City Center
Sun 09:14:01 PM 36.4322 -95.7133 226° Southwest 279 321 5,600 -1,535 Descending Kansas City Center
Sun 09:15:09 PM 36.3717 -95.7911 226° Southwest 251 289 3,700 -1,113 Descending Kansas City Center
Sun 09:16:05 PM 36.3364 -95.8336 224° Southwest 239 275 3,300 -667 Descending Kansas City Center
Sun 09:17:06 PM 36.2933 -95.8717 215° Southwest 200 230 2,400 -1,024 Descending Kansas City Center
Sun 09:18:08 PM 36.2447 -95.8781 186° South 160 184 1,200 -878 Descending Kansas City Center
Sun 09:19:09 PM 36.2014 -95.8817 184° South 152 175 600 -590 Descending Kansas City Center
Sun 09:21:00 PM 36.1984 -95.8881 215° Southwest  Level Estimated
Sun 09:28:00 PM 36.1984 -95.8881 215° Southwest  Level Estimated

Login

Don't have an account? Register now (free) for customized features, flight alerts, and more!